Time;durP1;ratioP1;P1;durP2;ratioP2;P2;SDS_P1;SDS_P2;PMS_P1;PMS_P2;Temp;Humidity;BMP_temperature;BMP_pressure;BME280_temperature;BME280_humidity;BME280_pressure;Samples;Min_cycle;Max_cycle;Signal;HPM_P1;HPM_P2
2023/12/18 00:01:04;;;;;;;2.73;2.10;;;14.90;99.90;;;;;;5098901;28;20174;-91
2023/12/18 00:03:33;;;;;;;2.20;2.00;;;14.90;99.90;;;;;;5102418;28;20237;-91
2023/12/18 00:06:02;;;;;;;2.33;1.80;;;14.90;99.90;;;;;;5097277;28;20181;-91
2023/12/18 00:08:31;;;;;;;3.03;1.80;;;14.90;99.90;;;;;;5101217;28;20186;-91
2023/12/18 00:11:00;;;;;;;1.93;1.67;;;14.80;99.90;;;;;;5101294;28;20442;-91
2023/12/18 00:13:29;;;;;;;2.53;1.90;;;14.90;99.90;;;;;;5098234;28;20178;-91
2023/12/18 00:15:54;;;;;;;2.87;2.17;;;14.90;99.90;;;;;;5102389;28;20208;-91
2023/12/18 00:18:21;;;;;;;3.40;1.77;;;14.80;99.90;;;;;;5099203;28;20212;-91
2023/12/18 00:20:52;;;;;;;3.87;2.07;;;14.80;99.90;;;;;;5099995;28;20456;-91
2023/12/18 00:23:18;;;;;;;3.53;2.30;;;14.80;99.90;;;;;;5096134;28;20188;-91
2023/12/18 00:25:47;;;;;;;2.57;1.90;;;14.90;99.90;;;;;;5099647;28;20240;-91
2023/12/18 00:28:13;;;;;;;3.47;2.07;;;14.90;99.90;;;;;;5097378;28;20188;-92
2023/12/18 00:30:42;;;;;;;2.37;1.70;;;14.80;99.90;;;;;;5097644;28;20263;-91
2023/12/18 00:33:10;;;;;;;2.63;1.80;;;14.80;99.90;;;;;;5096999;28;20195;-90
2023/12/18 00:35:36;;;;;;;2.27;1.63;;;14.80;99.90;;;;;;5065621;28;20202;-91
2023/12/18 00:38:05;;;;;;;2.60;1.57;;;14.80;99.90;;;;;;5096202;28;20249;-91
2023/12/18 00:40:33;;;;;;;3.00;2.00;;;14.80;99.90;;;;;;5097105;28;20171;-91
2023/12/18 00:43:02;;;;;;;2.63;1.90;;;14.80;99.90;;;;;;5095815;28;20179;-91
2023/12/18 00:45:31;;;;;;;2.33;1.80;;;14.80;99.90;;;;;;5096899;28;20250;-91
2023/12/18 00:47:59;;;;;;;3.00;1.90;;;14.80;99.90;;;;;;5098852;28;20194;-92
2023/12/18 00:50:25;;;;;;;2.33;1.67;;;14.80;99.90;;;;;;5099763;28;20275;-91
2023/12/18 00:52:54;;;;;;;2.63;1.87;;;14.80;99.90;;;;;;5096921;28;20618;-91
2023/12/18 00:55:22;;;;;;;2.30;2.00;;;14.80;99.90;;;;;;5099393;28;20215;-91
2023/12/18 00:57:51;;;;;;;2.70;1.93;;;14.80;99.90;;;;;;5103742;28;20179;-91
2023/12/18 01:00:18;;;;;;;5.23;2.03;;;14.80;99.90;;;;;;5116404;28;20273;-91
2023/12/18 01:02:46;;;;;;;2.00;1.77;;;14.80;99.90;;;;;;5097698;28;20449;-91
2023/12/18 01:05:15;;;;;;;3.70;1.97;;;14.80;99.90;;;;;;5093878;28;20185;-91
2023/12/18 01:07:41;;;;;;;1.83;1.70;;;14.80;99.90;;;;;;5098788;28;20174;-91
2023/12/18 01:10:07;;;;;;;3.53;1.90;;;14.80;99.90;;;;;;5096357;28;20179;-92
2023/12/18 01:12:36;;;;;;;1.97;1.60;;;14.80;99.90;;;;;;5094619;28;20174;-92
2023/12/18 01:15:06;;;;;;;1.93;1.60;;;14.80;99.90;;;;;;5093599;28;20232;-91
2023/12/18 01:17:35;;;;;;;2.30;1.60;;;14.80;99.90;;;;;;5099217;28;20364;-91
2023/12/18 01:20:05;;;;;;;2.13;1.70;;;14.80;99.90;;;;;;5097638;28;20178;-91
2023/12/18 01:22:34;;;;;;;2.87;1.70;;;14.80;99.90;;;;;;5094649;28;20205;-91
2023/12/18 01:25:02;;;;;;;2.03;1.83;;;14.80;99.90;;;;;;5093714;28;20529;-91
2023/12/18 01:27:30;;;;;;;1.77;1.60;;;14.80;99.90;;;;;;5096348;28;20574;-91
2023/12/18 01:29:59;;;;;;;3.50;1.73;;;14.80;99.90;;;;;;5097454;28;20318;-91
2023/12/18 01:32:27;;;;;;;1.97;1.60;;;14.70;99.90;;;;;;5094466;28;20272;-91
2023/12/18 01:34:57;;;;;;;3.10;2.03;;;14.80;99.90;;;;;;5097616;28;20172;-91
2023/12/18 01:37:22;;;;;;;2.63;1.90;;;14.80;99.90;;;;;;5097790;28;20257;-92
2023/12/18 01:39:51;;;;;;;2.20;1.60;;;14.80;99.90;;;;;;5098411;28;20320;-91
2023/12/18 01:42:16;;;;;;;1.83;1.60;;;14.70;99.90;;;;;;5098534;28;20174;-91
2023/12/18 01:44:42;;;;;;;2.90;1.83;;;14.80;99.90;;;;;;5097267;28;20174;-91
2023/12/18 01:47:08;;;;;;;2.33;1.63;;;14.80;99.90;;;;;;5097649;28;20163;-91
2023/12/18 01:49:38;;;;;;;2.03;1.67;;;14.80;99.90;;;;;;5097592;28;20742;-91
2023/12/18 01:52:07;;;;;;;2.73;2.00;;;14.80;99.90;;;;;;5097709;28;20555;-91
2023/12/18 01:54:40;;;;;;;1.90;1.70;;;14.80;99.90;;;;;;5097374;28;20172;-91
2023/12/18 01:57:06;;;;;;;2.30;1.80;;;14.80;99.90;;;;;;5095157;28;20467;-91
2023/12/18 01:59:35;;;;;;;2.07;1.60;;;14.80;99.90;;;;;;5091082;28;20345;-91
2023/12/18 02:02:01;;;;;;;1.93;1.70;;;14.80;99.90;;;;;;5094013;28;20176;-91
2023/12/18 02:04:30;;;;;;;2.20;1.60;;;14.80;99.90;;;;;;5097595;28;20463;-91
2023/12/18 02:07:01;;;;;;;2.20;1.60;;;14.80;99.90;;;;;;5093903;28;20180;-92
2023/12/18 02:09:27;;;;;;;2.20;1.60;;;14.80;99.90;;;;;;5097183;28;20614;-91
2023/12/18 02:11:56;;;;;;;2.13;1.77;;;14.80;99.90;;;;;;5093976;28;20438;-92
2023/12/18 02:14:22;;;;;;;2.63;1.70;;;14.70;99.90;;;;;;5096125;28;20253;-91
2023/12/18 02:16:48;;;;;;;1.60;1.50;;;14.70;99.90;;;;;;5093752;28;20305;-91
2023/12/18 02:19:34;;;;;;;2.57;1.80;;;14.70;99.90;;;;;;5093335;28;20264;-91
2023/12/18 02:22:03;;;;;;;2.00;1.70;;;14.70;99.90;;;;;;5092340;28;20185;-91
2023/12/18 02:24:31;;;;;;;2.40;1.70;;;14.70;99.90;;;;;;5092163;28;20168;-91
2023/12/18 02:27:02;;;;;;;4.60;1.60;;;14.70;99.90;;;;;;5091864;28;20174;-91
2023/12/18 02:29:30;;;;;;;2.53;1.60;;;14.70;99.90;;;;;;5095953;28;20255;-91
2023/12/18 02:32:03;;;;;;;2.80;1.67;;;14.70;99.90;;;;;;5091732;28;20186;-91
2023/12/18 02:34:31;;;;;;;2.03;1.57;;;14.70;99.90;;;;;;5095478;28;20178;-91
2023/12/18 02:37:03;;;;;;;1.63;1.50;;;14.70;99.90;;;;;;5092291;28;20226;-91
2023/12/18 02:39:32;;;;;;;2.27;1.63;;;14.70;99.90;;;;;;5094263;28;20456;-91
2023/12/18 02:42:00;;;;;;;1.83;1.70;;;14.70;99.90;;;;;;5093179;28;20169;-91
2023/12/18 02:44:29;;;;;;;3.20;1.80;;;14.70;99.90;;;;;;5103835;28;20174;-91
2023/12/18 02:46:57;;;;;;;2.00;1.70;;;14.70;99.90;;;;;;5092767;28;20279;-91
2023/12/18 02:49:26;;;;;;;1.93;1.67;;;14.70;99.90;;;;;;5093182;28;20175;-91
2023/12/18 02:51:52;;;;;;;2.30;1.70;;;14.70;99.90;;;;;;5094519;28;20548;-91
2023/12/18 02:54:20;;;;;;;1.97;1.50;;;14.70;99.90;;;;;;5096506;28;20177;-91
2023/12/18 02:56:50;;;;;;;2.00;1.50;;;14.70;99.90;;;;;;5093653;28;20202;-91
2023/12/18 02:59:15;;;;;;;2.20;1.77;;;14.70;99.90;;;;;;5097455;28;20177;-91
2023/12/18 03:01:44;;;;;;;2.27;1.60;;;14.70;99.90;;;;;;5093344;28;20187;-91
2023/12/18 03:04:09;;;;;;;2.30;1.70;;;14.70;99.90;;;;;;5098413;28;20265;-91
2023/12/18 03:06:36;;;;;;;1.83;1.60;;;14.70;99.90;;;;;;5093671;28;20291;-91
2023/12/18 03:09:05;;;;;;;2.27;1.83;;;14.70;99.90;;;;;;5098228;28;20173;-91
2023/12/18 03:11:34;;;;;;;2.17;1.73;;;14.70;99.90;;;;;;5094073;28;20269;-91
2023/12/18 03:13:59;;;;;;;2.17;1.73;;;14.70;99.90;;;;;;5096469;28;20176;-91
2023/12/18 03:16:26;;;;;;;2.20;1.70;;;14.70;99.90;;;;;;5095497;28;20539;-91
2023/12/18 03:18:52;;;;;;;2.43;1.87;;;14.70;99.90;;;;;;5114142;28;20158;-91
2023/12/18 03:21:21;;;;;;;2.57;1.70;;;14.70;99.90;;;;;;5092785;28;20187;-91
2023/12/18 03:23:49;;;;;;;2.13;1.67;;;14.70;99.90;;;;;;5093790;28;20169;-91
2023/12/18 03:26:18;;;;;;;2.37;1.93;;;14.70;99.90;;;;;;5096774;28;20177;-91
2023/12/18 03:28:44;;;;;;;1.53;1.40;;;14.70;99.90;;;;;;5093899;28;20184;-91
2023/12/18 03:31:10;;;;;;;2.20;1.50;;;14.70;99.90;;;;;;5095939;28;20235;-91
2023/12/18 03:33:39;;;;;;;2.23;1.60;;;14.60;99.90;;;;;;5097580;28;20166;-91
2023/12/18 03:36:11;;;;;;;2.63;1.50;;;14.60;99.90;;;;;;5097551;28;20208;-91
2023/12/18 03:38:39;;;;;;;2.00;1.60;;;14.60;99.90;;;;;;5096640;28;20541;-91
2023/12/18 03:41:08;;;;;;;2.33;1.50;;;14.60;99.90;;;;;;5096134;28;20409;-91
2023/12/18 03:43:37;;;;;;;2.10;1.47;;;14.60;99.90;;;;;;5095110;28;20278;-91
2023/12/18 03:46:04;;;;;;;3.03;2.00;;;14.60;99.90;;;;;;5097006;28;20173;-91
2023/12/18 03:48:29;;;;;;;2.37;1.70;;;14.60;99.90;;;;;;5096723;28;20525;-91
2023/12/18 03:50:58;;;;;;;2.77;1.70;;;14.60;99.90;;;;;;5095752;28;20559;-91
2023/12/18 03:53:24;;;;;;;2.73;1.80;;;14.60;99.90;;;;;;5094843;28;20183;-91
2023/12/18 03:55:50;;;;;;;2.30;1.67;;;14.60;99.90;;;;;;5092407;28;20203;-91
2023/12/18 03:58:18;;;;;;;2.33;1.50;;;14.60;99.90;;;;;;5096022;28;20167;-91
2023/12/18 04:00:47;;;;;;;2.37;1.77;;;14.60;99.90;;;;;;5092959;28;20185;-91
2023/12/18 04:03:15;;;;;;;1.70;1.60;;;14.60;99.90;;;;;;5096383;28;20447;-91
2023/12/18 04:05:42;;;;;;;2.00;1.50;;;14.60;99.90;;;;;;5093123;28;20180;-91
2023/12/18 04:08:10;;;;;;;2.53;1.60;;;14.60;99.90;;;;;;5096397;28;20211;-91
2023/12/18 04:10:36;;;;;;;2.37;1.70;;;14.60;99.90;;;;;;5094062;28;20184;-91
2023/12/18 04:13:02;;;;;;;2.17;1.57;;;14.60;99.90;;;;;;5099224;28;20240;-91
2023/12/18 04:15:31;;;;;;;1.63;1.53;;;14.60;99.90;;;;;;5099435;28;20307;-92
2023/12/18 04:17:57;;;;;;;2.30;1.53;;;14.60;99.90;;;;;;5099273;28;20459;-91
2023/12/18 04:20:23;;;;;;;2.30;1.57;;;14.50;99.90;;;;;;5105173;28;20564;-91
2023/12/18 04:22:49;;;;;;;1.40;1.30;;;14.50;99.90;;;;;;5115176;28;20259;-91
2023/12/18 04:25:18;;;;;;;2.17;1.77;;;14.50;99.90;;;;;;5094325;28;20302;-91
2023/12/18 04:27:46;;;;;;;2.20;1.60;;;14.50;99.90;;;;;;5094996;28;20189;-91
2023/12/18 04:30:15;;;;;;;2.33;1.60;;;14.50;99.90;;;;;;5098797;28;20418;-91
2023/12/18 04:32:43;;;;;;;1.87;1.47;;;14.50;99.90;;;;;;5099712;28;20217;-91
2023/12/18 04:35:12;;;;;;;1.93;1.53;;;14.50;99.90;;;;;;5104043;28;20198;-91
2023/12/18 04:37:41;;;;;;;2.07;1.60;;;14.50;99.90;;;;;;5099294;28;20185;-91
2023/12/18 04:40:08;;;;;;;1.50;1.40;;;14.50;99.90;;;;;;5097695;28;20188;-91
2023/12/18 04:42:33;;;;;;;2.40;1.50;;;14.50;99.90;;;;;;5092745;28;20215;-91
2023/12/18 04:44:59;;;;;;;3.17;1.70;;;14.50;99.90;;;;;;5095527;28;20484;-91
2023/12/18 04:47:25;;;;;;;2.07;1.70;;;14.60;99.90;;;;;;5093048;28;20174;-91
2023/12/18 04:49:54;;;;;;;2.53;1.70;;;14.60;99.90;;;;;;5091369;28;20182;-91
2023/12/18 04:52:20;;;;;;;1.80;1.60;;;14.60;99.90;;;;;;5094760;28;20168;-91
2023/12/18 04:54:48;;;;;;;3.67;1.60;;;14.70;99.90;;;;;;5094769;28;20195;-91
2023/12/18 04:57:16;;;;;;;1.73;1.40;;;14.70;99.90;;;;;;5095038;28;20194;-91
2023/12/18 04:59:45;;;;;;;3.20;1.40;;;14.70;99.90;;;;;;5095298;28;20274;-91
2023/12/18 05:02:14;;;;;;;2.10;1.73;;;14.70;99.90;;;;;;5096659;28;20510;-91
2023/12/18 05:04:42;;;;;;;1.70;1.60;;;14.70;99.90;;;;;;5092932;28;20166;-91
2023/12/18 05:07:12;;;;;;;2.00;1.50;;;14.70;99.90;;;;;;5079426;28;20217;-91
2023/12/18 05:09:39;;;;;;;1.83;1.67;;;14.70;99.90;;;;;;5093292;28;20196;-92
2023/12/18 05:12:08;;;;;;;2.30;1.67;;;14.70;99.90;;;;;;5095116;28;20443;-91
2023/12/18 05:14:36;;;;;;;2.40;1.60;;;14.70;99.90;;;;;;5092847;28;20178;-91
2023/12/18 05:17:05;;;;;;;1.93;1.40;;;14.70;99.90;;;;;;5105347;28;20200;-91
2023/12/18 05:19:31;;;;;;;1.60;1.50;;;14.70;99.90;;;;;;5091658;28;20539;-91
2023/12/18 05:22:00;;;;;;;1.73;1.40;;;14.70;99.90;;;;;;5100985;28;20327;-91
2023/12/18 05:24:28;;;;;;;1.83;1.60;;;14.70;99.90;;;;;;5087938;28;20181;-91
2023/12/18 05:26:56;;;;;;;1.70;1.50;;;14.60;99.90;;;;;;5090242;28;20177;-91
2023/12/18 05:29:25;;;;;;;1.90;1.70;;;14.60;99.90;;;;;;5094066;28;20541;-91
2023/12/18 05:31:54;;;;;;;2.47;1.60;;;14.60;99.90;;;;;;5089442;28;20192;-91
2023/12/18 05:34:22;;;;;;;1.87;1.50;;;14.60;99.90;;;;;;5093087;28;20536;-92
2023/12/18 05:36:50;;;;;;;3.00;1.40;;;14.60;99.90;;;;;;5088725;28;20203;-91
2023/12/18 05:39:19;;;;;;;2.20;1.50;;;14.60;99.90;;;;;;5108784;28;20176;-91
2023/12/18 05:41:48;;;;;;;2.10;1.50;;;14.60;99.90;;;;;;5088316;28;20175;-91
2023/12/18 05:44:13;;;;;;;2.30;1.60;;;14.60;99.90;;;;;;5091517;28;20535;-92
2023/12/18 05:46:42;;;;;;;2.00;1.50;;;14.50;99.90;;;;;;5088266;28;20435;-92
2023/12/18 05:49:12;;;;;;;1.77;1.50;;;14.50;99.90;;;;;;5092812;28;20218;-91
2023/12/18 05:51:39;;;;;;;2.33;1.40;;;14.50;99.90;;;;;;5106588;28;20239;-91
2023/12/18 05:54:04;;;;;;;2.30;1.73;;;14.50;99.90;;;;;;5093081;28;20243;-91
2023/12/18 05:56:33;;;;;;;2.40;1.60;;;14.50;99.90;;;;;;5093119;28;20201;-92
2023/12/18 05:59:01;;;;;;;3.30;1.60;;;14.50;99.90;;;;;;5094337;28;20218;-91
2023/12/18 06:01:30;;;;;;;1.93;1.57;;;14.50;99.90;;;;;;5093351;28;20195;-91
2023/12/18 06:03:59;;;;;;;2.43;1.50;;;14.50;99.90;;;;;;5090886;28;20297;-91
2023/12/18 06:06:24;;;;;;;2.27;1.67;;;14.50;99.90;;;;;;5107358;28;20232;-91
2023/12/18 06:08:51;;;;;;;2.40;1.60;;;14.50;99.90;;;;;;5091028;28;20171;-91
2023/12/18 06:11:20;;;;;;;1.90;1.53;;;14.50;99.90;;;;;;5090812;28;20537;-91
2023/12/18 06:13:46;;;;;;;4.43;1.73;;;14.50;99.90;;;;;;5090380;28;20449;-91
2023/12/18 06:16:14;;;;;;;2.37;1.20;;;14.50;99.90;;;;;;5109240;28;20208;-91
2023/12/18 06:18:44;;;;;;;2.30;1.60;;;14.60;99.90;;;;;;5087406;28;20167;-92
2023/12/18 06:21:09;;;;;;;2.53;1.50;;;14.60;99.90;;;;;;5087654;28;20183;-91
2023/12/18 06:23:38;;;;;;;1.93;1.70;;;14.60;99.90;;;;;;5089300;28;20343;-91
2023/12/18 06:26:07;;;;;;;2.50;1.70;;;14.60;99.90;;;;;;5068585;28;20162;-91
2023/12/18 06:28:36;;;;;;;2.30;1.77;;;14.60;99.90;;;;;;5082089;28;20201;-91
2023/12/18 06:31:02;;;;;;;5.70;1.90;;;14.70;99.90;;;;;;5086761;28;20186;-91
2023/12/18 06:33:33;;;;;;;2.30;1.80;;;14.70;99.90;;;;;;5098586;28;20174;-91
2023/12/18 06:35:59;;;;;;;3.87;2.03;;;14.70;99.90;;;;;;5085259;28;20260;-91
2023/12/18 06:38:28;;;;;;;3.17;2.00;;;14.70;99.90;;;;;;5088022;28;20204;-91
2023/12/18 06:40:54;;;;;;;3.07;1.93;;;14.70;99.90;;;;;;5086939;28;20522;-91
2023/12/18 06:43:22;;;;;;;3.80;2.20;;;14.70;99.90;;;;;;5090864;28;20204;-91
2023/12/18 06:45:51;;;;;;;2.50;2.07;;;14.70;99.90;;;;;;5083579;28;20170;-91
2023/12/18 06:48:23;;;;;;;2.97;2.00;;;14.70;99.90;;;;;;5085180;28;20170;-92
2023/12/18 06:50:52;;;;;;;5.07;2.37;;;14.70;99.90;;;;;;5084783;28;20174;-91
2023/12/18 06:53:23;;;;;;;4.10;2.30;;;14.70;99.90;;;;;;5083007;28;20172;-91
2023/12/18 06:55:49;;;;;;;2.17;1.97;;;14.70;99.90;;;;;;5094202;28;20199;-91
2023/12/18 06:58:21;;;;;;;5.50;2.37;;;14.70;99.90;;;;;;5086649;28;20178;-91
2023/12/18 07:00:50;;;;;;;3.30;2.03;;;14.70;99.90;;;;;;5087840;28;20183;-91
2023/12/18 07:03:19;;;;;;;2.40;2.13;;;14.70;99.90;;;;;;5084962;28;20317;-91
2023/12/18 07:05:45;;;;;;;2.70;2.23;;;14.70;99.90;;;;;;5085314;28;20174;-91
2023/12/18 07:08:14;;;;;;;4.03;2.33;;;14.70;99.90;;;;;;5087437;28;20246;-91
2023/12/18 07:10:40;;;;;;;3.60;2.30;;;14.70;99.90;;;;;;5083688;28;20175;-91
2023/12/18 07:13:12;;;;;;;5.20;2.57;;;14.70;99.90;;;;;;5088008;28;20181;-91
2023/12/18 07:15:41;;;;;;;3.20;2.43;;;14.70;99.90;;;;;;5086317;28;20621;-91
2023/12/18 07:18:12;;;;;;;3.73;2.50;;;14.70;99.90;;;;;;5085088;28;20430;-91
2023/12/18 07:20:37;;;;;;;3.53;2.40;;;14.70;99.90;;;;;;5085784;28;20176;-91
2023/12/18 07:23:05;;;;;;;4.10;2.70;;;14.70;99.90;;;;;;5087185;28;20247;-91
2023/12/18 07:25:33;;;;;;;5.27;3.00;;;14.70;99.90;;;;;;5086773;28;20528;-91
2023/12/18 07:28:09;;;;;;;5.93;3.17;;;14.60;99.90;;;;;;5082389;28;20177;-91
2023/12/18 07:30:35;;;;;;;3.93;2.50;;;14.70;99.90;;;;;;5082585;28;20473;-91
2023/12/18 07:33:00;;;;;;;4.70;2.77;;;14.70;99.90;;;;;;5085817;28;20660;-91
2023/12/18 07:35:29;;;;;;;3.83;2.70;;;14.70;99.90;;;;;;5064544;28;20658;-91
2023/12/18 07:37:58;;;;;;;4.70;2.97;;;14.70;99.90;;;;;;5083589;28;20337;-91
2023/12/18 07:40:26;;;;;;;4.87;2.97;;;14.70;99.90;;;;;;5080153;28;20538;-91
2023/12/18 07:42:55;;;;;;;6.57;3.20;;;14.70;99.90;;;;;;5081785;28;20269;-91
2023/12/18 07:45:23;;;;;;;3.87;2.77;;;14.70;99.90;;;;;;5084148;28;20171;-91
2023/12/18 07:47:56;;;;;;;5.63;2.90;;;14.70;99.90;;;;;;5085495;28;20185;-91
2023/12/18 07:50:25;;;;;;;5.37;2.90;;;14.80;99.90;;;;;;5089941;28;20178;-91
2023/12/18 07:52:50;;;;;;;5.97;3.30;;;14.80;99.90;;;;;;5091878;28;20545;-91
2023/12/18 07:55:19;;;;;;;5.20;3.03;;;14.80;99.90;;;;;;5090990;28;20195;-91
2023/12/18 07:57:47;;;;;;;5.63;3.20;;;14.80;99.90;;;;;;5091789;28;20265;-91
2023/12/18 08:00:16;;;;;;;5.60;3.37;;;14.90;99.80;;;;;;5090296;28;20187;-91
2023/12/18 08:02:42;;;;;;;4.57;2.63;;;14.90;99.60;;;;;;5090008;28;20263;-91
2023/12/18 08:05:11;;;;;;;7.20;3.57;;;15.00;99.50;;;;;;5089608;28;20274;-91
2023/12/18 08:07:37;;;;;;;6.90;3.30;;;15.00;99.30;;;;;;5086278;28;20182;-91
2023/12/18 08:10:06;;;;;;;7.13;3.10;;;15.00;99.20;;;;;;5087819;28;20256;-91
2023/12/18 08:12:34;;;;;;;5.47;3.00;;;15.10;99.10;;;;;;5091235;28;20199;-91
2023/12/18 08:15:02;;;;;;;7.23;3.07;;;15.10;99.00;;;;;;5089355;28;20202;-92
2023/12/18 08:17:27;;;;;;;5.43;3.10;;;15.10;99.00;;;;;;5096152;28;20173;-91
2023/12/18 08:19:53;;;;;;;4.87;3.20;;;15.10;99.00;;;;;;5091220;28;20170;-91
2023/12/18 08:22:21;;;;;;;7.67;3.27;;;15.10;98.90;;;;;;5092220;28;20202;-91
2023/12/18 08:24:50;;;;;;;5.33;2.80;;;15.00;98.80;;;;;;5085524;28;20301;-91
2023/12/18 08:27:19;;;;;;;6.30;3.07;;;15.10;98.90;;;;;;5091950;28;20237;-91
2023/12/18 08:29:47;;;;;;;5.47;3.10;;;15.00;98.90;;;;;;5089139;28;20373;-91
2023/12/18 08:32:17;;;;;;;4.87;3.03;;;15.00;98.80;;;;;;5086831;28;20264;-91
2023/12/18 08:34:48;;;;;;;5.20;3.00;;;15.00;98.80;;;;;;5088360;28;20177;-91
2023/12/18 08:37:17;;;;;;;5.67;3.00;;;15.00;98.80;;;;;;5088387;28;20212;-91
2023/12/18 08:39:45;;;;;;;7.83;3.40;;;15.00;98.80;;;;;;5084625;28;20175;-91
2023/12/18 08:42:15;;;;;;;6.47;3.30;;;15.00;98.70;;;;;;5088299;28;20178;-92
2023/12/18 08:44:44;;;;;;;4.70;3.03;;;15.00;98.70;;;;;;5107345;28;20341;-91
2023/12/18 08:47:11;;;;;;;4.10;3.13;;;15.00;98.60;;;;;;5089444;28;20416;-91
2023/12/18 08:49:36;;;;;;;4.07;3.37;;;14.90;98.60;;;;;;5089912;28;20205;-91
2023/12/18 08:52:08;;;;;;;7.00;3.40;;;14.90;98.60;;;;;;5106665;28;20201;-91
2023/12/18 08:54:36;;;;;;;7.07;3.53;;;14.90;98.60;;;;;;5090109;28;20211;-91
2023/12/18 08:57:05;;;;;;;5.63;3.30;;;14.90;98.50;;;;;;5106990;28;20338;-92
2023/12/18 08:59:34;;;;;;;3.90;3.10;;;14.90;98.50;;;;;;5083948;28;20564;-91
2023/12/18 09:02:00;;;;;;;4.27;2.93;;;14.90;98.50;;;;;;5086544;28;20293;-91
2023/12/18 09:04:26;;;;;;;3.97;3.10;;;14.90;98.40;;;;;;5087473;28;20203;-91
2023/12/18 09:06:55;;;;;;;5.23;3.40;;;14.90;98.40;;;;;;5086634;28;20206;-91
2023/12/18 09:09:23;;;;;;;3.80;3.00;;;14.90;98.40;;;;;;5088283;28;20174;-91
2023/12/18 09:11:55;;;;;;;4.40;3.10;;;14.90;98.40;;;;;;5089749;28;20183;-91
2023/12/18 09:14:24;;;;;;;5.23;3.33;;;14.90;98.30;;;;;;5088894;28;20174;-91
2023/12/18 09:16:52;;;;;;;5.13;2.80;;;14.90;98.30;;;;;;5089542;28;20202;-91
2023/12/18 09:19:21;;;;;;;4.83;3.13;;;14.90;98.40;;;;;;5087472;28;20173;-91
2023/12/18 09:21:47;;;;;;;4.87;3.33;;;14.90;98.40;;;;;;5082641;28;20575;-91
2023/12/18 09:24:16;;;;;;;3.57;3.10;;;14.80;98.10;;;;;;5086912;28;20288;-91
2023/12/18 09:26:45;;;;;;;4.20;3.10;;;14.90;97.90;;;;;;5081835;28;20259;-92
2023/12/18 09:29:11;;;;;;;3.77;2.80;;;14.90;97.70;;;;;;5085872;28;20188;-91
2023/12/18 09:31:44;;;;;;;3.87;2.80;;;14.90;97.60;;;;;;5083398;28;20291;-91
2023/12/18 09:34:10;;;;;;;7.90;2.97;;;14.90;97.70;;;;;;5066597;28;20421;-91
2023/12/18 09:36:39;;;;;;;4.00;2.80;;;15.00;97.70;;;;;;5088276;28;20209;-91
2023/12/18 09:39:04;;;;;;;5.20;3.10;;;15.00;97.60;;;;;;5086794;28;20364;-91
2023/12/18 09:41:33;;;;;;;4.03;2.90;;;15.00;97.50;;;;;;5083471;28;20178;-91
2023/12/18 09:43:59;;;;;;;4.17;2.93;;;15.00;97.40;;;;;;5084982;28;20609;-91
2023/12/18 09:46:26;;;;;;;3.93;2.63;;;15.10;97.40;;;;;;5088692;28;20274;-91
2023/12/18 09:48:57;;;;;;;4.17;2.93;;;15.10;97.30;;;;;;5087610;28;20421;-91
2023/12/18 09:51:24;;;;;;;4.50;3.07;;;15.10;97.30;;;;;;5089831;28;20339;-91
2023/12/18 09:53:57;;;;;;;3.70;3.00;;;15.10;97.20;;;;;;5088139;28;20170;-91
2023/12/18 09:56:24;;;;;;;4.07;3.20;;;15.10;97.20;;;;;;5081896;28;20200;-91
2023/12/18 09:58:59;;;;;;;4.33;3.00;;;15.10;97.10;;;;;;5087112;28;20275;-91
2023/12/18 10:01:36;;;;;;;3.03;2.60;;;15.10;97.10;;;;;;5087325;28;20236;-91
2023/12/18 10:04:02;;;;;;;3.80;3.10;;;15.20;97.10;;;;;;5088742;28;20173;-91
2023/12/18 10:06:31;;;;;;;3.63;2.90;;;15.10;97.00;;;;;;5086858;28;20324;-91
2023/12/18 10:09:03;;;;;;;5.00;2.60;;;15.20;97.00;;;;;;5085440;28;20354;-92
2023/12/18 10:11:32;;;;;;;3.63;2.40;;;15.10;97.00;;;;;;5089217;28;20644;-91
2023/12/18 10:14:04;;;;;;;4.37;2.90;;;15.10;97.00;;;;;;5083491;28;20168;-91
2023/12/18 10:16:30;;;;;;;4.60;2.67;;;15.20;97.00;;;;;;5084525;28;20203;-91
2023/12/18 10:18:59;;;;;;;4.47;2.83;;;15.10;96.80;;;;;;5088123;28;20175;-91
2023/12/18 10:21:28;;;;;;;3.93;2.70;;;15.20;96.80;;;;;;5084461;28;20667;-91
2023/12/18 10:23:54;;;;;;;5.53;2.97;;;15.20;96.50;;;;;;5084197;28;20204;-92
2023/12/18 10:26:25;;;;;;;4.77;2.67;;;15.10;96.40;;;;;;5087210;28;20680;-91
2023/12/18 10:28:54;;;;;;;3.23;2.83;;;15.10;96.40;;;;;;5085324;28;20573;-92
2023/12/18 10:31:25;;;;;;;3.37;2.47;;;15.10;96.40;;;;;;5097383;28;20158;-92
2023/12/18 10:33:54;;;;;;;4.80;2.87;;;15.10;96.40;;;;;;5089548;28;20467;-91
2023/12/18 10:36:27;;;;;;;3.70;2.77;;;15.10;96.40;;;;;;5088420;28;20243;-92
2023/12/18 10:38:54;;;;;;;3.00;2.70;;;15.00;96.40;;;;;;5086227;28;20179;-91
2023/12/18 10:41:21;;;;;;;4.23;2.47;;;15.10;96.50;;;;;;5086913;28;20201;-91
2023/12/18 10:43:53;;;;;;;4.60;2.60;;;15.00;96.50;;;;;;5085896;28;20333;-92
2023/12/18 10:46:26;;;;;;;3.60;2.77;;;15.00;96.50;;;;;;5086893;28;20173;-92
2023/12/18 10:48:57;;;;;;;4.37;2.50;;;15.00;96.60;;;;;;5086574;28;20167;-91
2023/12/18 10:51:27;;;;;;;3.23;2.43;;;15.00;96.60;;;;;;5087780;28;20228;-92
2023/12/18 10:53:54;;;;;;;3.80;2.37;;;15.00;96.70;;;;;;5088628;28;20216;-91
2023/12/18 10:56:23;;;;;;;3.50;2.67;;;15.00;96.80;;;;;;5086640;28;20193;-91
2023/12/18 10:58:51;;;;;;;4.40;2.30;;;15.00;96.90;;;;;;5084797;28;20206;-91
2023/12/18 11:01:17;;;;;;;6.30;2.53;;;15.00;96.90;;;;;;5086244;28;20243;-92
2023/12/18 11:03:45;;;;;;;7.57;2.23;;;15.00;96.90;;;;;;5087440;28;20185;-91
2023/12/18 11:06:11;;;;;;;4.73;2.90;;;15.00;96.90;;;;;;5088930;28;20414;-91
2023/12/18 11:08:37;;;;;;;5.93;2.50;;;15.00;96.80;;;;;;5087603;28;20239;-91
2023/12/18 11:11:08;;;;;;;5.07;2.33;;;15.00;96.70;;;;;;5087025;28;20285;-92
2023/12/18 11:14:05;;;;;;;3.10;2.50;;;15.00;96.70;;;;;;5085738;28;20171;-92
2023/12/18 11:17:08;;;;;;;3.17;2.30;;;15.10;96.70;;;;;;5035761;28;20547;-91
2023/12/18 11:20:11;;;;;;;4.10;2.47;;;15.10;96.70;;;;;;5029833;28;20181;-91
2023/12/18 11:22:47;;;;;;;8.80;2.50;;;15.20;96.50;;;;;;5085147;28;20184;-91
2023/12/18 11:25:16;;;;;;;2.70;2.20;;;15.20;96.50;;;;;;5090619;28;20184;-91
2023/12/18 11:27:42;;;;;;;3.50;2.40;;;15.20;96.50;;;;;;5089514;28;20201;-92
2023/12/18 11:30:48;;;;;;;5.90;2.60;;;15.20;96.50;;;;;;5086861;28;20206;-91
2023/12/18 11:33:14;;;;;;;12.60;2.60;;;15.30;96.20;;;;;;5073352;28;20544;-91
2023/12/18 11:35:53;;;;;;;4.40;2.43;;;15.30;96.10;;;;;;5089641;28;20211;-91
2023/12/18 11:38:24;;;;;;;3.60;2.40;;;15.40;96.10;;;;;;5087171;28;20166;-91
2023/12/18 11:40:55;;;;;;;4.47;2.80;;;15.30;96.10;;;;;;5089446;28;20179;-92
2023/12/18 11:43:34;;;;;;;6.33;2.50;;;15.30;96.10;;;;;;5087197;28;20165;-92
2023/12/18 11:46:09;;;;;;;4.63;2.60;;;15.30;96.10;;;;;;5088185;28;20524;-92
2023/12/18 11:48:35;;;;;;;4.73;2.40;;;15.30;96.20;;;;;;5084846;28;20174;-91
2023/12/18 11:51:04;;;;;;;3.60;2.47;;;15.30;96.20;;;;;;5099694;28;20435;-91
2023/12/18 11:53:43;;;;;;;5.50;2.20;;;15.30;96.30;;;;;;5088518;28;20253;-91
2023/12/18 11:56:10;;;;;;;3.77;2.70;;;15.30;96.30;;;;;;5088995;28;20279;-91
2023/12/18 11:58:42;;;;;;;4.87;2.60;;;15.20;96.10;;;;;;5087283;28;20162;-91
2023/12/18 12:01:12;;;;;;;4.30;2.47;;;15.20;96.00;;;;;;5089459;28;20490;-91
2023/12/18 12:03:40;;;;;;;5.13;2.50;;;15.30;95.90;;;;;;5085705;28;20441;-91
2023/12/18 12:06:08;;;;;;;4.23;2.40;;;15.30;95.90;;;;;;5071786;28;20179;-91
2023/12/18 12:09:01;;;;;;;4.17;2.10;;;15.20;95.80;;;;;;5083460;28;20169;-91
2023/12/18 12:11:30;;;;;;;5.17;2.43;;;15.20;95.80;;;;;;5077824;28;20294;-91
2023/12/18 12:14:01;;;;;;;6.00;2.27;;;15.20;95.70;;;;;;5087298;28;20471;-91
2023/12/18 12:16:29;;;;;;;3.57;2.40;;;15.20;95.60;;;;;;5092968;28;20525;-91
2023/12/18 12:18:55;;;;;;;2.80;2.07;;;15.20;95.60;;;;;;5083875;28;20414;-91
2023/12/18 12:21:23;;;;;;;2.77;2.20;;;15.20;95.60;;;;;;5086355;28;20608;-91
2023/12/18 12:23:51;;;;;;;3.60;1.97;;;15.20;95.70;;;;;;5086557;28;20556;-91
2023/12/18 12:26:22;;;;;;;4.33;2.37;;;15.20;95.90;;;;;;5089398;28;20196;-91
2023/12/18 12:28:51;;;;;;;2.57;1.77;;;15.20;95.70;;;;;;5087237;28;20170;-91
2023/12/18 12:31:18;;;;;;;3.73;2.10;;;15.20;95.60;;;;;;5083129;28;20205;-91
2023/12/18 12:33:45;;;;;;;3.40;2.23;;;15.20;95.80;;;;;;5082411;28;20418;-91
2023/12/18 12:36:24;;;;;;;3.00;2.00;;;15.10;95.80;;;;;;5088919;28;20543;-91
2023/12/18 12:38:53;;;;;;;2.90;2.00;;;15.10;95.80;;;;;;5084824;28;20168;-91
2023/12/18 12:41:22;;;;;;;4.17;2.20;;;15.10;95.90;;;;;;5085551;28;20534;-91
2023/12/18 12:43:50;;;;;;;3.30;2.10;;;15.10;95.90;;;;;;5082795;28;20166;-91
2023/12/18 12:46:16;;;;;;;3.27;1.93;;;15.10;95.90;;;;;;5084063;28;20589;-91
2023/12/18 12:48:44;;;;;;;2.40;1.90;;;15.10;95.90;;;;;;5078874;28;20172;-91
2023/12/18 12:51:09;;;;;;;2.83;1.87;;;15.10;96.00;;;;;;5082688;28;20175;-91
2023/12/18 12:53:39;;;;;;;2.57;1.80;;;15.10;96.00;;;;;;5078725;28;20190;-91
2023/12/18 12:56:04;;;;;;;2.80;1.80;;;15.10;96.00;;;;;;5081134;28;20486;-91